Time;durP1;ratioP1;P1;durP2;ratioP2;P2;SDS_P1;SDS_P2;PMS_P1;PMS_P2;Temp;Humidity;BMP_temperature;BMP_pressure;BME280_temperature;BME280_humidity;BME280_pressure;Samples;Min_cycle;Max_cycle;Signal;HPM_P1;HPM_P2
2022/05/25 00:00:12;;;;;;;3.47;3.10;;;15.40;99.90;;;;;;5057503;28;20456;-40
2022/05/25 00:02:40;;;;;;;3.13;2.83;;;15.40;99.90;;;;;;5057326;28;20444;-47
2022/05/25 00:05:09;;;;;;;4.37;2.87;;;15.30;99.90;;;;;;5056822;28;20451;-49
2022/05/25 00:07:36;;;;;;;5.23;2.53;;;15.30;99.90;;;;;;5056448;28;20553;-46
2022/05/25 00:10:03;;;;;;;3.87;2.87;;;15.30;99.90;;;;;;5056843;28;20460;-48
2022/05/25 00:12:29;;;;;;;5.17;3.60;;;15.30;99.90;;;;;;5056845;28;20857;-44
2022/05/25 00:14:57;;;;;;;4.80;3.43;;;15.20;99.90;;;;;;5056441;28;20440;-52
2022/05/25 00:17:24;;;;;;;3.67;3.37;;;15.20;99.90;;;;;;5048843;28;20666;-41
2022/05/25 00:19:59;;;;;;;3.07;2.60;;;15.20;99.90;;;;;;5056529;28;20455;-56
2022/05/25 00:22:26;;;;;;;6.00;3.20;;;15.10;99.90;;;;;;5040231;28;20524;-38
2022/05/25 00:24:56;;;;;;;9.07;4.23;;;15.10;99.90;;;;;;5037273;28;20456;-42
2022/05/25 00:27:23;;;;;;;3.93;3.33;;;15.00;99.90;;;;;;5036941;28;20532;-48
2022/05/25 00:29:49;;;;;;;6.30;2.97;;;15.00;99.90;;;;;;5036467;28;20481;-48
2022/05/25 00:32:17;;;;;;;5.90;2.93;;;15.00;99.90;;;;;;5036552;28;20429;-51
2022/05/25 00:34:45;;;;;;;3.50;2.60;;;15.00;99.90;;;;;;5037324;28;20437;-40
2022/05/25 00:37:12;;;;;;;5.87;3.27;;;14.90;99.90;;;;;;5036893;28;20476;-44
2022/05/25 00:39:40;;;;;;;3.73;3.30;;;14.90;99.90;;;;;;5036360;28;20534;-45
2022/05/25 00:42:07;;;;;;;3.30;3.00;;;14.80;99.90;;;;;;5030709;28;20460;-47
2022/05/25 00:44:34;;;;;;;4.30;3.30;;;14.80;99.90;;;;;;5036961;28;20457;-52
2022/05/25 00:47:01;;;;;;;4.73;3.23;;;14.70;99.90;;;;;;5037512;28;20481;-44
2022/05/25 00:49:32;;;;;;;4.57;3.87;;;14.70;99.90;;;;;;5036933;28;20984;-44
2022/05/25 00:52:03;;;;;;;5.70;3.47;;;14.70;99.90;;;;;;5036403;28;20422;-50
2022/05/25 00:54:32;;;;;;;3.53;2.87;;;14.60;99.90;;;;;;5029218;28;20520;-49
2022/05/25 00:57:02;;;;;;;2.73;2.53;;;14.60;99.90;;;;;;5036620;28;20740;-39
2022/05/25 00:59:32;;;;;;;3.37;2.63;;;14.60;99.90;;;;;;5024844;28;20496;-47
2022/05/25 01:01:59;;;;;;;3.67;2.73;;;14.60;99.90;;;;;;5032261;28;20442;-45
2022/05/25 01:04:28;;;;;;;3.20;2.67;;;14.60;99.90;;;;;;5035965;28;20449;-49
2022/05/25 01:07:20;;;;;;;5.10;3.83;;;14.60;99.90;;;;;;5035876;28;20484;-46
2022/05/25 01:12:41;;;;;;;3.60;2.60;;;14.60;99.90;;;;;;5054072;28;20452;-43
2022/05/25 01:15:18;;;;;;;7.47;2.73;;;14.60;99.90;;;;;;5057206;28;20416;-42
2022/05/25 01:18:04;;;;;;;3.43;2.93;;;14.60;99.90;;;;;;5056875;28;20436;-43
2022/05/25 01:20:38;;;;;;;4.83;3.37;;;14.50;99.90;;;;;;5056682;28;20577;-42
2022/05/25 01:23:27;;;;;;;3.33;2.83;;;14.50;99.90;;;;;;5056366;28;20472;-40
2022/05/25 01:26:16;;;;;;;4.50;3.40;;;14.50;99.90;;;;;;5049260;28;20460;-48
2022/05/25 01:28:56;;;;;;;2.73;2.40;;;14.50;99.90;;;;;;5042847;28;20492;-45
2022/05/25 01:31:27;;;;;;;8.67;3.43;;;14.50;99.90;;;;;;5047742;28;20428;-48
2022/05/25 01:33:58;;;;;;;3.37;2.70;;;14.40;99.90;;;;;;5057677;28;20451;-42
2022/05/25 01:36:31;;;;;;;4.33;3.20;;;14.40;99.90;;;;;;5057013;28;20530;-43
2022/05/25 01:39:02;;;;;;;3.43;3.13;;;14.30;99.90;;;;;;5047563;28;20490;-45
2022/05/25 01:41:36;;;;;;;2.90;2.63;;;14.30;99.90;;;;;;5056081;28;20873;-47
2022/05/25 01:44:08;;;;;;;12.30;4.03;;;14.30;99.90;;;;;;5056142;28;20443;-44
2022/05/25 01:46:42;;;;;;;4.20;2.90;;;14.30;99.90;;;;;;5055712;28;20440;-39
2022/05/25 01:49:14;;;;;;;4.70;3.07;;;14.30;99.90;;;;;;5055717;28;20467;-46
2022/05/25 01:51:44;;;;;;;5.57;3.37;;;14.20;99.90;;;;;;5056022;28;20420;-45
2022/05/25 01:54:14;;;;;;;5.83;3.67;;;14.20;99.90;;;;;;5055378;28;20448;-47
2022/05/25 01:56:46;;;;;;;4.80;3.00;;;14.20;99.90;;;;;;5055629;28;20515;-42
2022/05/25 01:59:17;;;;;;;3.93;2.70;;;14.20;99.90;;;;;;5055945;28;20433;-44
2022/05/25 02:04:19;;;;;;;6.93;2.57;;;14.20;99.90;;;;;;5056132;28;20409;-42
2022/05/25 02:04:40;;;;;;;4.27;3.13;;;14.20;99.90;;;;;;5056353;28;20522;-38
2022/05/25 02:07:19;;;;;;;3.27;2.97;;;14.20;99.90;;;;;;5055975;28;20469;-50
2022/05/25 02:10:07;;;;;;;10.07;3.77;;;14.20;99.90;;;;;;5055264;28;20467;-47
2022/05/25 02:12:44;;;;;;;5.90;3.60;;;14.20;99.90;;;;;;5055344;28;20948;-39
2022/05/25 02:15:22;;;;;;;3.80;2.93;;;14.20;99.90;;;;;;5055307;28;20451;-43
2022/05/25 02:17:59;;;;;;;4.57;3.53;;;14.20;99.90;;;;;;5055030;28;20493;-45
2022/05/25 02:20:32;;;;;;;3.57;3.00;;;14.30;99.90;;;;;;5055450;28;20454;-45
2022/05/25 02:23:04;;;;;;;5.80;3.47;;;14.30;99.90;;;;;;5055642;28;20452;-40
2022/05/25 02:25:36;;;;;;;5.67;3.57;;;14.30;99.90;;;;;;5055405;28;20433;-40
2022/05/25 02:28:09;;;;;;;4.30;2.97;;;14.30;99.90;;;;;;5055126;28;20460;-48
2022/05/25 02:30:38;;;;;;;5.43;3.00;;;14.30;99.90;;;;;;5054636;28;20508;-40
2022/05/25 02:33:10;;;;;;;4.30;3.53;;;14.30;99.90;;;;;;5046549;28;20463;-40
2022/05/25 02:35:39;;;;;;;5.40;3.00;;;14.30;99.90;;;;;;5055253;28;20495;-46
2022/05/25 02:38:08;;;;;;;5.07;3.20;;;14.30;99.90;;;;;;5054429;28;20452;-45
2022/05/25 02:40:36;;;;;;;7.00;3.33;;;14.30;99.90;;;;;;5055298;28;20503;-34
2022/05/25 02:43:04;;;;;;;5.37;3.97;;;14.30;99.90;;;;;;5055687;28;21008;-45
2022/05/25 02:45:31;;;;;;;3.80;2.97;;;14.30;99.90;;;;;;5052748;28;20452;-54
2022/05/25 02:47:57;;;;;;;3.90;3.20;;;14.40;99.90;;;;;;5049553;28;20495;-46
2022/05/25 02:50:26;;;;;;;3.03;2.73;;;14.40;99.90;;;;;;5054572;28;20440;-50
2022/05/25 02:52:53;;;;;;;4.50;3.00;;;14.40;99.90;;;;;;5054143;28;20480;-46
2022/05/25 02:55:20;;;;;;;3.70;3.27;;;14.40;99.90;;;;;;5055008;28;20472;-42
2022/05/25 02:57:47;;;;;;;3.57;3.27;;;14.40;99.90;;;;;;5046255;28;20432;-40
2022/05/25 03:00:14;;;;;;;4.57;2.40;;;14.40;99.90;;;;;;5054620;28;20444;-46
2022/05/25 03:02:41;;;;;;;6.13;3.20;;;14.50;99.90;;;;;;5055152;28;20475;-45
2022/05/25 03:05:09;;;;;;;5.07;3.63;;;14.50;99.90;;;;;;5055182;28;20478;-42
2022/05/25 03:07:37;;;;;;;3.63;3.30;;;14.50;99.90;;;;;;5059245;28;20511;-39
2022/05/25 03:10:05;;;;;;;4.73;3.10;;;14.50;99.90;;;;;;5058734;28;20678;-47
2022/05/25 03:12:32;;;;;;;4.37;3.13;;;14.50;99.90;;;;;;5058958;28;20423;-44
2022/05/25 03:14:58;;;;;;;7.80;2.80;;;14.50;99.90;;;;;;5059395;28;20498;-44
2022/05/25 03:17:25;;;;;;;7.50;3.63;;;14.50;99.90;;;;;;5059234;28;20453;-45
2022/05/25 03:19:54;;;;;;;5.20;3.67;;;14.50;99.90;;;;;;5058569;28;20487;-52
2022/05/25 03:22:21;;;;;;;7.27;4.33;;;14.50;99.90;;;;;;5058711;28;20479;-52
2022/05/25 03:24:50;;;;;;;4.77;4.03;;;14.50;99.90;;;;;;5059857;28;20432;-42
2022/05/25 03:27:16;;;;;;;4.80;3.80;;;14.50;99.90;;;;;;5059654;28;20478;-42
2022/05/25 03:29:44;;;;;;;4.70;3.80;;;14.40;99.90;;;;;;5059410;28;20432;-44
2022/05/25 03:32:11;;;;;;;7.13;4.00;;;14.40;99.90;;;;;;5058103;28;20436;-43
2022/05/25 03:34:38;;;;;;;4.33;3.60;;;14.40;99.90;;;;;;5049365;28;20517;-40
2022/05/25 03:37:05;;;;;;;5.50;4.10;;;14.40;99.90;;;;;;5057559;28;20451;-44
2022/05/25 03:39:31;;;;;;;4.93;3.80;;;14.40;99.90;;;;;;5057210;28;20455;-40
2022/05/25 03:42:04;;;;;;;20.40;4.47;;;14.40;99.90;;;;;;5058543;28;20467;-35
2022/05/25 03:44:31;;;;;;;4.80;3.80;;;14.40;99.90;;;;;;5058135;28;20437;-49
2022/05/25 03:46:57;;;;;;;4.27;3.73;;;14.50;99.90;;;;;;5057874;28;20521;-48
2022/05/25 03:49:24;;;;;;;3.60;3.27;;;14.50;99.90;;;;;;5050335;28;20537;-52
2022/05/25 03:51:54;;;;;;;4.10;3.13;;;14.50;99.90;;;;;;5054381;28;20853;-46
2022/05/25 03:54:21;;;;;;;7.00;3.73;;;14.60;99.90;;;;;;5052792;28;20454;-43
2022/05/25 03:56:48;;;;;;;5.07;3.57;;;14.60;99.90;;;;;;5057830;28;20801;-47
2022/05/25 03:59:17;;;;;;;6.67;4.13;;;14.60;99.90;;;;;;5057982;28;20444;-44
2022/05/25 04:01:44;;;;;;;4.20;3.10;;;14.70;99.90;;;;;;5057966;28;20460;-47
2022/05/25 04:04:11;;;;;;;3.80;3.40;;;14.70;99.90;;;;;;5058007;28;20474;-48
2022/05/25 04:06:38;;;;;;;8.63;4.00;;;14.70;99.90;;;;;;5051850;28;20526;-47
2022/05/25 04:09:09;;;;;;;6.83;6.03;;;14.70;99.90;;;;;;5056670;28;20471;-43
2022/05/25 04:11:36;;;;;;;4.30;3.50;;;14.80;99.90;;;;;;5056840;28;20515;-39
2022/05/25 04:14:03;;;;;;;5.93;3.77;;;14.80;99.90;;;;;;5057760;28;20471;-36
2022/05/25 04:16:31;;;;;;;5.43;4.13;;;14.80;99.90;;;;;;5057768;28;20413;-35
2022/05/25 04:18:58;;;;;;;4.50;3.63;;;14.90;99.90;;;;;;5058180;28;20451;-41
2022/05/25 04:21:25;;;;;;;5.67;4.17;;;15.00;99.90;;;;;;5057704;28;20467;-43
2022/05/25 04:23:52;;;;;;;11.93;4.60;;;15.00;99.90;;;;;;5058084;28;20929;-47
2022/05/25 04:26:19;;;;;;;7.40;4.63;;;15.00;99.90;;;;;;5057878;28;20456;-45
2022/05/25 04:28:48;;;;;;;3.70;3.40;;;15.10;99.90;;;;;;5048768;28;20491;-47
2022/05/25 04:31:16;;;;;;;5.47;4.07;;;15.20;99.90;;;;;;5058218;28;20474;-47
2022/05/25 04:33:44;;;;;;;5.23;3.63;;;15.30;99.90;;;;;;5055082;28;20445;-52
2022/05/25 04:36:10;;;;;;;4.83;3.87;;;15.30;99.90;;;;;;5050242;28;20479;-43
2022/05/25 04:38:37;;;;;;;4.13;3.57;;;15.40;99.90;;;;;;5057170;28;20438;-42
2022/05/25 04:41:04;;;;;;;5.07;3.73;;;15.40;99.90;;;;;;5056952;28;20456;-40
2022/05/25 04:43:30;;;;;;;4.10;3.63;;;15.50;99.90;;;;;;5057668;28;20429;-39
2022/05/25 04:45:59;;;;;;;10.63;4.87;;;15.50;99.90;;;;;;5057299;28;20439;-43
2022/05/25 04:48:26;;;;;;;4.87;4.30;;;15.60;99.90;;;;;;5056933;28;20484;-41
2022/05/25 04:50:56;;;;;;;4.97;4.47;;;15.60;99.90;;;;;;5047191;28;20468;-42
2022/05/25 04:53:23;;;;;;;3.80;3.00;;;15.70;99.90;;;;;;5057175;28;20486;-45
2022/05/25 04:58:37;;;;;;;4.60;3.93;;;15.80;99.90;;;;;;5057608;28;20408;-37
2022/05/25 05:01:05;;;;;;;6.77;4.30;;;15.90;99.90;;;;;;5056971;28;20475;-43
2022/05/25 05:03:33;;;;;;;5.07;4.13;;;15.90;99.90;;;;;;5057253;28;20437;-45
2022/05/25 05:06:02;;;;;;;5.60;4.40;;;15.90;99.90;;;;;;5057563;28;20486;-48
2022/05/25 05:08:29;;;;;;;4.90;3.87;;;16.00;99.90;;;;;;5057683;28;20476;-44
2022/05/25 05:10:56;;;;;;;7.77;4.17;;;16.00;99.90;;;;;;5056077;28;20506;-43
2022/05/25 05:13:23;;;;;;;6.37;3.30;;;16.10;99.90;;;;;;5056415;28;20912;-46
2022/05/25 05:15:51;;;;;;;7.07;3.57;;;16.20;99.90;;;;;;5056526;28;20459;-45
2022/05/25 05:18:19;;;;;;;4.60;3.97;;;16.30;99.90;;;;;;5056554;28;20424;-43
2022/05/25 05:20:46;;;;;;;5.93;3.67;;;16.40;99.90;;;;;;5057136;28;20449;-42
2022/05/25 05:23:14;;;;;;;5.27;4.57;;;16.40;99.90;;;;;;5056988;28;20417;-44
2022/05/25 05:25:41;;;;;;;6.90;3.20;;;16.50;99.90;;;;;;5056086;28;20470;-45
2022/05/25 05:28:10;;;;;;;7.10;4.07;;;16.60;99.90;;;;;;5055711;28;20480;-42
2022/05/25 05:30:40;;;;;;;4.07;3.67;;;16.60;99.90;;;;;;5047590;28;20506;-45
2022/05/25 05:33:07;;;;;;;6.10;3.83;;;16.70;99.90;;;;;;5050847;28;20480;-46
2022/05/25 05:35:34;;;;;;;7.60;3.40;;;16.80;99.90;;;;;;5052766;28;20435;-41
2022/05/25 05:38:02;;;;;;;4.30;3.70;;;16.80;99.90;;;;;;5049911;28;20464;-43
2022/05/25 05:40:31;;;;;;;4.13;3.73;;;16.90;99.90;;;;;;5056790;28;20441;-49
2022/05/25 05:43:02;;;;;;;7.43;3.57;;;17.00;99.90;;;;;;5042492;28;20452;-44
2022/05/25 05:45:33;;;;;;;3.87;3.07;;;17.00;99.90;;;;;;5031538;28;20426;-47
2022/05/25 05:48:05;;;;;;;3.50;3.00;;;17.10;99.90;;;;;;5036810;28;20472;-40
2022/05/25 05:50:33;;;;;;;5.77;3.33;;;17.10;99.90;;;;;;5048648;28;20436;-50
2022/05/25 05:53:00;;;;;;;4.17;3.77;;;17.10;99.90;;;;;;5049198;28;20587;-52
2022/05/25 05:55:27;;;;;;;3.20;2.90;;;17.10;99.90;;;;;;5054633;28;20495;-42
2022/05/25 05:57:55;;;;;;;3.37;2.97;;;17.10;99.90;;;;;;5070444;28;20539;-40
2022/05/25 06:00:22;;;;;;;3.60;3.13;;;17.10;99.90;;;;;;5069574;28;20455;-38
2022/05/25 06:02:50;;;;;;;3.90;3.50;;;17.10;99.90;;;;;;5045760;28;20479;-44
2022/05/25 06:05:17;;;;;;;4.33;3.83;;;17.20;99.90;;;;;;5056740;28;20453;-51
2022/05/25 06:07:44;;;;;;;4.20;3.80;;;17.20;99.90;;;;;;5055637;28;20502;-53
2022/05/25 06:10:11;;;;;;;12.03;3.87;;;17.30;99.90;;;;;;5054782;28;20484;-49
2022/05/25 06:12:38;;;;;;;4.73;4.20;;;17.30;99.90;;;;;;5050525;28;20467;-50
2022/05/25 06:20:34;;;;;;;4.07;3.50;;;17.60;99.90;;;;;;5051416;28;20435;-44
2022/05/25 06:23:00;;;;;;;4.87;3.60;;;17.70;99.90;;;;;;5053983;28;20452;-47
2022/05/25 06:25:27;;;;;;;8.67;3.80;;;17.80;99.90;;;;;;5037845;28;20448;-45
2022/05/25 06:27:55;;;;;;;7.70;4.70;;;17.80;99.90;;;;;;5055106;28;20471;-45
2022/05/25 06:30:24;;;;;;;5.57;3.70;;;17.80;99.90;;;;;;5054620;28;20453;-48
2022/05/25 06:32:51;;;;;;;4.10;3.70;;;17.90;99.90;;;;;;5051688;28;20444;-40
2022/05/25 06:35:19;;;;;;;4.10;2.90;;;18.00;99.90;;;;;;5052549;28;20440;-44
2022/05/25 06:37:45;;;;;;;5.20;3.77;;;18.20;99.90;;;;;;5053661;28;20451;-44
2022/05/25 06:40:12;;;;;;;4.63;3.57;;;18.40;99.90;;;;;;5053506;28;20470;-43
2022/05/25 06:42:41;;;;;;;3.77;3.27;;;18.50;99.90;;;;;;5055682;28;20490;-38
2022/05/25 06:45:09;;;;;;;4.07;3.67;;;18.70;99.90;;;;;;5055196;28;20456;-47
2022/05/25 06:47:38;;;;;;;6.50;4.00;;;18.80;99.90;;;;;;5050592;28;20452;-34
2022/05/25 06:50:06;;;;;;;5.30;3.37;;;18.80;99.90;;;;;;5054463;28;20480;-39
2022/05/25 06:52:33;;;;;;;6.13;4.47;;;19.00;99.90;;;;;;5054934;28;20460;-37
2022/05/25 06:54:59;;;;;;;4.60;3.90;;;19.00;99.90;;;;;;5055251;28;20482;-49
2022/05/25 06:57:26;;;;;;;5.60;4.20;;;19.20;99.90;;;;;;5056459;28;20467;-46
2022/05/25 06:59:53;;;;;;;6.53;3.70;;;19.20;99.90;;;;;;5056058;28;20472;-45
2022/05/25 07:02:22;;;;;;;4.50;3.60;;;19.20;99.90;;;;;;5055963;28;20464;-43
2022/05/25 07:04:51;;;;;;;5.50;3.67;;;19.20;99.90;;;;;;5055262;28;20510;-42
2022/05/25 07:07:18;;;;;;;4.37;3.97;;;19.20;99.90;;;;;;5055861;28;20516;-43
2022/05/25 07:09:47;;;;;;;3.80;3.43;;;19.10;99.90;;;;;;5055573;28;20498;-37
2022/05/25 07:12:14;;;;;;;5.70;3.40;;;19.00;99.90;;;;;;5055970;28;20468;-43
2022/05/25 07:14:41;;;;;;;4.50;4.10;;;18.90;99.90;;;;;;5056151;28;20444;-39
2022/05/25 07:17:08;;;;;;;5.13;4.40;;;18.70;99.90;;;;;;5055305;28;20474;-44
2022/05/25 07:19:35;;;;;;;6.57;4.30;;;18.60;99.90;;;;;;5055586;28;20463;-43
2022/05/25 07:22:08;;;;;;;4.40;3.73;;;18.60;99.90;;;;;;5056119;28;20431;-40
2022/05/25 07:24:37;;;;;;;4.40;3.50;;;18.70;99.90;;;;;;5056104;28;20484;-49
2022/05/25 07:27:05;;;;;;;5.80;3.63;;;18.70;99.90;;;;;;5056140;28;20451;-50
2022/05/25 07:29:32;;;;;;;3.40;3.03;;;18.80;99.90;;;;;;5055272;28;20488;-40
2022/05/25 07:32:02;;;;;;;5.00;3.60;;;18.80;99.90;;;;;;5055856;28;20416;-45
2022/05/25 07:34:35;;;;;;;3.57;2.90;;;19.00;99.90;;;;;;5055870;28;20515;-46
2022/05/25 07:37:10;;;;;;;2.57;2.37;;;19.10;99.90;;;;;;5055577;28;20478;-39
2022/05/25 07:39:44;;;;;;;3.10;2.80;;;19.10;99.90;;;;;;5055743;28;20423;-42
2022/05/25 07:42:12;;;;;;;4.87;4.40;;;19.20;99.90;;;;;;5056250;28;20428;-41
2022/05/25 07:44:42;;;;;;;3.00;2.70;;;19.40;99.90;;;;;;5056220;28;20474;-46
2022/05/25 07:47:09;;;;;;;5.10;3.20;;;19.70;99.90;;;;;;5055765;28;20511;-41
2022/05/25 07:49:35;;;;;;;3.50;3.20;;;20.10;99.90;;;;;;5055667;28;20487;-38
2022/05/25 07:52:04;;;;;;;5.70;3.30;;;20.10;99.90;;;;;;5055914;28;20906;-49
2022/05/25 07:54:32;;;;;;;3.33;3.03;;;20.10;99.90;;;;;;5057435;28;20467;-41
2022/05/25 07:56:59;;;;;;;5.10;2.97;;;19.90;99.90;;;;;;5057738;28;20448;-38
2022/05/25 07:59:26;;;;;;;6.00;4.73;;;19.90;99.90;;;;;;5057344;28;20439;-40
2022/05/25 08:07:41;;;;;;;5.23;3.50;;;19.90;99.90;;;;;;4998726;28;20490;-42
2022/05/25 08:10:16;;;;;;;5.20;3.00;;;19.80;99.90;;;;;;4997899;28;20494;-44
2022/05/25 08:12:45;;;;;;;4.20;3.37;;;19.70;99.90;;;;;;5028668;28;20467;-44
2022/05/25 08:15:14;;;;;;;5.60;3.73;;;19.50;99.90;;;;;;5058999;28;20494;-39
2022/05/25 08:17:41;;;;;;;4.80;3.80;;;19.50;99.90;;;;;;5059224;28;20474;-38
2022/05/25 08:20:10;;;;;;;5.03;3.70;;;19.40;99.90;;;;;;5058404;28;20499;-39
2022/05/25 08:22:37;;;;;;;6.63;3.77;;;19.40;99.90;;;;;;5058666;28;20427;-38
2022/05/25 08:25:07;;;;;;;6.67;3.10;;;19.60;99.90;;;;;;5058981;28;20464;-38
2022/05/25 08:27:38;;;;;;;3.70;3.40;;;19.90;99.90;;;;;;5058876;28;20444;-37
2022/05/25 08:30:06;;;;;;;4.13;3.73;;;20.20;99.90;;;;;;5057997;28;20476;-40
2022/05/25 08:32:33;;;;;;;4.00;3.03;;;20.60;99.90;;;;;;5058216;28;20468;-38
2022/05/25 08:34:59;;;;;;;2.90;2.57;;;21.10;99.90;;;;;;5058219;28;20475;-41
2022/05/25 08:37:26;;;;;;;5.13;2.43;;;21.70;99.90;;;;;;5058254;28;20451;-40
2022/05/25 08:39:53;;;;;;;3.07;2.70;;;22.20;99.90;;;;;;5058100;28;20425;-40
2022/05/25 08:42:25;;;;;;;4.00;3.70;;;22.80;99.90;;;;;;5057735;28;20444;-43
2022/05/25 08:44:56;;;;;;;3.90;2.90;;;23.40;98.30;;;;;;5057744;28;20448;-41
2022/05/25 08:47:24;;;;;;;3.67;3.27;;;23.80;97.20;;;;;;5057676;28;20456;-43
2022/05/25 08:49:51;;;;;;;3.03;2.70;;;24.00;95.70;;;;;;5057462;28;20488;-46
2022/05/25 08:52:23;;;;;;;4.37;3.23;;;24.10;93.40;;;;;;5057556;28;20444;-47
2022/05/25 08:54:50;;;;;;;3.87;3.27;;;24.30;92.90;;;;;;5057446;28;20452;-39
2022/05/25 08:57:24;;;;;;;5.03;3.20;;;24.50;91.20;;;;;;5057317;28;20463;-42
2022/05/25 08:59:54;;;;;;;3.50;3.20;;;24.60;90.20;;;;;;5057059;28;20421;-40
2022/05/25 09:02:27;;;;;;;5.17;2.63;;;24.40;89.50;;;;;;5056711;28;20472;-39
2022/05/25 09:05:01;;;;;;;2.93;2.67;;;24.40;86.10;;;;;;5055838;28;20477;-44
2022/05/25 09:07:35;;;;;;;3.07;2.50;;;24.50;85.40;;;;;;5056759;28;20472;-40
2022/05/25 09:10:03;;;;;;;3.90;2.13;;;24.90;86.20;;;;;;5056363;28;20533;-38
2022/05/25 09:12:35;;;;;;;2.90;2.23;;;25.00;83.30;;;;;;5056356;28;20433;-40
2022/05/25 09:15:06;;;;;;;3.27;2.33;;;25.40;82.70;;;;;;5056619;28;20432;-39
2022/05/25 09:17:37;;;;;;;6.03;2.80;;;25.90;79.60;;;;;;5056431;28;20482;-45
2022/05/25 09:20:05;;;;;;;4.97;2.97;;;26.30;74.70;;;;;;5055980;28;20444;-41
2022/05/25 09:22:35;;;;;;;3.40;2.83;;;26.20;75.20;;;;;;5056031;28;20443;-46
2022/05/25 09:25:04;;;;;;;3.60;2.17;;;26.40;73.20;;;;;;5055981;28;20494;-46
2022/05/25 09:27:39;;;;;;;2.30;2.10;;;26.60;71.20;;;;;;5056395;28;20442;-44
2022/05/25 09:30:07;;;;;;;2.97;2.67;;;27.20;70.90;;;;;;5055401;28;20497;-45
2022/05/25 09:32:40;;;;;;;3.03;2.60;;;28.20;66.40;;;;;;5054905;28;20449;-47
2022/05/25 09:35:11;;;;;;;2.87;2.57;;;27.80;64.90;;;;;;5054685;28;20440;-43
2022/05/25 09:37:47;;;;;;;3.73;2.27;;;26.90;69.00;;;;;;5054802;28;20524;-42
2022/05/25 09:40:25;;;;;;;3.60;2.40;;;26.50;68.60;;;;;;5054532;28;20420;-42
2022/05/25 09:42:57;;;;;;;2.33;2.13;;;25.80;69.30;;;;;;5054968;28;21128;-43
2022/05/25 09:45:25;;;;;;;4.93;2.33;;;25.90;70.30;;;;;;5055172;28;20445;-47
2022/05/25 09:47:54;;;;;;;4.43;3.30;;;26.50;69.10;;;;;;5054758;28;20527;-41
2022/05/25 09:50:32;;;;;;;2.40;2.17;;;27.10;67.00;;;;;;5052600;28;20511;-51
2022/05/25 09:53:02;;;;;;;2.83;1.90;;;27.80;64.60;;;;;;5049235;28;20416;-43
2022/05/25 09:55:33;;;;;;;3.70;2.10;;;28.20;60.40;;;;;;5048311;28;20432;-44
2022/05/25 09:58:05;;;;;;;2.67;1.70;;;28.10;59.10;;;;;;5045990;28;20461;-50
2022/05/25 10:00:42;;;;;;;2.37;1.97;;;28.50;57.80;;;;;;5050983;28;20444;-43
2022/05/25 10:03:11;;;;;;;1.90;1.70;;;28.50;57.60;;;;;;5056048;28;20449;-43
2022/05/25 10:05:54;;;;;;;3.30;1.57;;;28.80;57.00;;;;;;5054450;28;20483;-47
2022/05/25 10:08:35;;;;;;;2.70;1.80;;;28.80;55.30;;;;;;5055788;28;20421;-42
2022/05/25 10:11:27;;;;;;;2.30;1.80;;;28.90;54.80;;;;;;5055423;28;20480;-42
2022/05/25 10:13:56;;;;;;;3.00;1.90;;;29.00;54.90;;;;;;5055415;28;20456;-43
2022/05/25 10:16:26;;;;;;;2.63;1.80;;;29.10;54.30;;;;;;5055175;28;20444;-42
2022/05/25 10:18:53;;;;;;;2.53;1.60;;;28.90;53.20;;;;;;5054371;28;20456;-46
2022/05/25 10:21:27;;;;;;;1.97;1.63;;;28.20;53.30;;;;;;5054326;28;20475;-44
2022/05/25 10:23:55;;;;;;;1.90;1.73;;;26.80;55.40;;;;;;5054852;28;20531;-45
2022/05/25 10:26:32;;;;;;;1.47;1.37;;;26.00;56.20;;;;;;5055980;28;20448;-46
2022/05/25 10:29:07;;;;;;;2.03;1.53;;;25.70;58.10;;;;;;5055164;28;20493;-42
2022/05/25 10:37:19;;;;;;;2.13;1.70;;;25.20;59.40;;;;;;5055069;28;20452;-45
2022/05/25 10:39:57;;;;;;;1.73;1.63;;;25.30;58.90;;;;;;5055386;28;20420;-46
2022/05/25 10:42:29;;;;;;;1.70;1.50;;;25.40;59.80;;;;;;5055567;28;20423;-42
2022/05/25 10:45:05;;;;;;;2.47;1.97;;;25.20;59.00;;;;;;5054014;28;20506;-42
2022/05/25 10:47:52;;;;;;;5.30;2.37;;;24.70;59.70;;;;;;5055844;28;20429;-42
2022/05/25 10:50:23;;;;;;;2.30;1.70;;;24.80;61.70;;;;;;5055190;28;20475;-46
2022/05/25 10:52:54;;;;;;;2.73;2.03;;;24.90;60.20;;;;;;5055167;28;20431;-45
2022/05/25 10:55:24;;;;;;;1.50;1.40;;;24.80;61.10;;;;;;5054773;28;20464;-46
2022/05/25 10:58:28;;;;;;;5.33;1.83;;;24.70;61.30;;;;;;5055687;28;20447;-45
2022/05/25 11:01:17;;;;;;;2.00;1.80;;;24.50;62.50;;;;;;5042612;28;20464;-44
2022/05/25 11:04:11;;;;;;;3.70;1.60;;;24.10;61.80;;;;;;5054989;28;20487;-42
2022/05/25 11:06:52;;;;;;;4.80;1.50;;;24.00;62.70;;;;;;5055166;28;20409;-49
2022/05/25 11:09:30;;;;;;;3.97;2.47;;;24.00;63.20;;;;;;5055103;28;20449;-44
2022/05/25 11:12:03;;;;;;;2.37;1.70;;;24.10;63.90;;;;;;5054955;28;20451;-41
2022/05/25 11:14:56;;;;;;;2.10;1.83;;;24.00;62.80;;;;;;5053879;28;20531;-44
2022/05/25 11:17:45;;;;;;;2.60;1.70;;;24.10;64.30;;;;;;5055104;28;20420;-44
2022/05/25 11:20:24;;;;;;;3.07;2.10;;;24.30;61.40;;;;;;5054164;28;20539;-45
2022/05/25 11:23:09;;;;;;;1.97;1.57;;;24.20;60.80;;;;;;5054362;28;20495;-45
2022/05/25 11:25:48;;;;;;;2.20;1.63;;;23.90;60.40;;;;;;5055158;28;20476;-42
2022/05/25 11:28:29;;;;;;;2.40;1.47;;;23.70;62.10;;;;;;5058225;28;20492;-43
2022/05/25 11:31:14;;;;;;;4.23;1.80;;;23.50;62.00;;;;;;5057399;28;20475;-43
2022/05/25 11:33:56;;;;;;;2.00;1.33;;;23.30;62.20;;;;;;5054263;28;20462;-47
2022/05/25 11:36:37;;;;;;;2.40;1.60;;;23.10;62.80;;;;;;5047088;28;20494;-48
2022/05/25 11:39:10;;;;;;;2.13;1.90;;;22.90;63.30;;;;;;5047638;28;20495;-46
2022/05/25 11:41:44;;;;;;;4.73;2.60;;;22.70;63.70;;;;;;5051039;28;20538;-51
2022/05/25 11:44:38;;;;;;;4.73;1.83;;;22.50;64.70;;;;;;5050075;28;20476;-47
2022/05/25 11:47:13;;;;;;;2.73;2.00;;;22.20;65.60;;;;;;5049887;28;20940;-46
2022/05/25 11:49:55;;;;;;;4.70;2.03;;;22.00;65.70;;;;;;5054335;28;20457;-43
2022/05/25 11:52:53;;;;;;;3.83;1.90;;;21.80;67.00;;;;;;5051669;28;20424;-44
2022/05/25 11:55:22;;;;;;;1.83;1.57;;;22.00;68.40;;;;;;5051377;28;20463;-45
2022/05/25 11:58:09;;;;;;;2.67;1.57;;;22.50;66.70;;;;;;5047141;28;20459;-44
2022/05/25 12:00:57;;;;;;;2.60;1.37;;;22.80;65.80;;;;;;5063392;28;21062;-42
2022/05/25 12:04:04;;;;;;;2.87;1.30;;;23.00;64.90;;;;;;5068499;28;20459;-47
2022/05/25 12:06:54;;;;;;;2.00;1.80;;;22.80;61.20;;;;;;5059138;28;20440;-46
2022/05/25 12:09:34;;;;;;;5.57;3.33;;;22.80;62.40;;;;;;5066235;28;20548;-48
2022/05/25 12:12:09;;;;;;;1.83;1.47;;;22.80;64.70;;;;;;5068472;28;20440;-43
2022/05/25 12:14:45;;;;;;;2.03;1.30;;;22.90;63.90;;;;;;5061808;28;20474;-43
2022/05/25 12:17:21;;;;;;;3.20;1.60;;;22.90;63.60;;;;;;5052566;28;20421;-43
2022/05/25 12:19:49;;;;;;;2.40;1.30;;;22.90;61.90;;;;;;5051513;28;20498;-43
2022/05/25 12:22:21;;;;;;;2.03;1.83;;;22.70;62.40;;;;;;5053847;28;20452;-47
2022/05/25 12:24:52;;;;;;;1.90;1.50;;;22.40;64.10;;;;;;5051146;28;20433;-48
2022/05/25 12:27:22;;;;;;;1.50;1.30;;;22.30;64.40;;;;;;5057103;28;20482;-45
2022/05/25 12:29:52;;;;;;;1.77;1.50;;;22.10;64.70;;;;;;5058262;28;20428;-48
2022/05/25 12:32:21;;;;;;;1.53;1.43;;;22.00;65.80;;;;;;5057155;28;20548;-37
2022/05/25 12:34:50;;;;;;;2.50;2.30;;;22.20;66.70;;;;;;5056221;28;20443;-39
2022/05/25 12:37:27;;;;;;;3.10;1.63;;;22.50;66.30;;;;;;5055861;28;20440;-44
2022/05/25 12:40:00;;;;;;;2.37;1.40;;;22.70;66.90;;;;;;5055738;28;20486;-39
2022/05/25 12:42:39;;;;;;;1.47;1.37;;;22.80;65.70;;;;;;5056268;28;20432;-41
2022/05/25 12:50:43;;;;;;;1.30;1.13;;;22.70;63.20;;;;;;5054988;28;20491;-42
2022/05/25 12:53:32;;;;;;;1.47;1.00;;;22.60;63.60;;;;;;5056639;28;20448;-46
2022/05/25 12:56:00;;;;;;;3.53;1.40;;;22.50;63.80;;;;;;5056096;28;20416;-42
2022/05/25 12:58:45;;;;;;;2.93;1.80;;;22.40;64.50;;;;;;5046573;28;20468;-47
2022/05/25 13:01:29;;;;;;;2.00;1.63;;;22.40;63.80;;;;;;5056744;28;20441;-42
2022/05/25 13:04:28;;;;;;;1.40;1.30;;;22.60;63.60;;;;;;5057321;28;20456;-46
2022/05/25 13:07:44;;;;;;;1.50;1.40;;;22.70;64.30;;;;;;5056027;28;20417;-48
2022/05/25 13:10:29;;;;;;;2.83;1.50;;;22.80;63.50;;;;;;5055788;28;20455;-50
2022/05/25 13:12:56;;;;;;;6.57;1.40;;;22.70;62.90;;;;;;5028242;28;20463;-46
2022/05/25 13:15:42;;;;;;;3.37;1.40;;;22.60;63.60;;;;;;5047704;28;20464;-45
2022/05/25 13:18:29;;;;;;;2.17;1.60;;;22.70;64.70;;;;;;5055635;28;20412;-44
2022/05/25 13:21:02;;;;;;;1.53;1.30;;;22.60;64.30;;;;;;5057184;28;20475;-44
2022/05/25 13:24:06;;;;;;;1.73;1.40;;;22.40;64.80;;;;;;5056074;28;20436;-44
2022/05/25 13:26:51;;;;;;;1.87;1.53;;;22.20;65.60;;;;;;5055986;28;20468;-45
2022/05/25 13:29:24;;;;;;;2.80;2.07;;;22.00;65.90;;;;;;5055601;28;20445;-46
2022/05/25 13:31:57;;;;;;;1.50;1.40;;;21.80;65.50;;;;;;5056982;28;20479;-44
2022/05/25 13:34:24;;;;;;;1.33;1.20;;;21.50;66.30;;;;;;5057269;28;20464;-38
2022/05/25 13:36:55;;;;;;;1.60;1.33;;;21.30;66.10;;;;;;5056521;28;20460;-45